sensor_id;sensor_type;location;lat;lon;timestamp;temperature;humidity
11772;DHT22;12556;55.748;13.194;2023-05-31T00:00:18;11.60;99.30
11772;DHT22;12556;55.748;13.194;2023-05-31T00:02:46;11.60;99.50
11772;DHT22;12556;55.748;13.194;2023-05-31T00:05:13;11.60;99.60
11772;DHT22;12556;55.748;13.194;2023-05-31T00:07:40;11.60;99.70
11772;DHT22;12556;55.748;13.194;2023-05-31T00:10:07;11.60;99.90
11772;DHT22;12556;55.748;13.194;2023-05-31T00:12:34;11.60;99.90
11772;DHT22;12556;55.748;13.194;2023-05-31T00:15:01;11.50;99.90
11772;DHT22;12556;55.748;13.194;2023-05-31T00:17:28;11.50;99.90
11772;DHT22;12556;55.748;13.194;2023-05-31T00:19:56;11.50;99.90
11772;DHT22;12556;55.748;13.194;2023-05-31T00:22:23;11.50;99.90
11772;DHT22;12556;55.748;13.194;2023-05-31T00:24:50;11.40;99.90
11772;DHT22;12556;55.748;13.194;2023-05-31T00:27:18;11.40;99.90
11772;DHT22;12556;55.748;13.194;2023-05-31T00:29:44;11.40;99.90
11772;DHT22;12556;55.748;13.194;2023-05-31T00:32:11;11.40;99.90
11772;DHT22;12556;55.748;13.194;2023-05-31T00:34:38;11.40;99.90
11772;DHT22;12556;55.748;13.194;2023-05-31T00:37:07;11.40;99.90
11772;DHT22;12556;55.748;13.194;2023-05-31T00:39:33;11.30;99.90
11772;DHT22;12556;55.748;13.194;2023-05-31T00:42:00;11.40;99.90
11772;DHT22;12556;55.748;13.194;2023-05-31T00:44:28;11.30;99.90
11772;DHT22;12556;55.748;13.194;2023-05-31T00:46:55;11.40;99.90
11772;DHT22;12556;55.748;13.194;2023-05-31T00:49:22;11.40;99.90
11772;DHT22;12556;55.748;13.194;2023-05-31T00:51:49;11.40;99.90
11772;DHT22;12556;55.748;13.194;2023-05-31T00:54:18;11.30;99.90
11772;DHT22;12556;55.748;13.194;2023-05-31T00:56:45;11.30;99.90
11772;DHT22;12556;55.748;13.194;2023-05-31T00:59:12;11.30;99.90
11772;DHT22;12556;55.748;13.194;2023-05-31T01:01:38;11.30;99.90
11772;DHT22;12556;55.748;13.194;2023-05-31T01:04:07;11.20;99.90
11772;DHT22;12556;55.748;13.194;2023-05-31T01:06:34;11.20;99.90
11772;DHT22;12556;55.748;13.194;2023-05-31T01:09:03;11.20;99.90
11772;DHT22;12556;55.748;13.194;2023-05-31T01:11:49;11.10;99.90
11772;DHT22;12556;55.748;13.194;2023-05-31T01:14:27;11.10;99.90
11772;DHT22;12556;55.748;13.194;2023-05-31T01:17:01;11.10;99.90
11772;DHT22;12556;55.748;13.194;2023-05-31T01:19:44;11.10;99.90
11772;DHT22;12556;55.748;13.194;2023-05-31T01:22:21;11.10;99.90
11772;DHT22;12556;55.748;13.194;2023-05-31T01:25:04;11.10;99.90
11772;DHT22;12556;55.748;13.194;2023-05-31T01:27:37;11.10;99.90
11772;DHT22;12556;55.748;13.194;2023-05-31T01:30:05;11.10;99.90
11772;DHT22;12556;55.748;13.194;2023-05-31T01:32:34;11.00;99.90
11772;DHT22;12556;55.748;13.194;2023-05-31T01:35:01;11.10;99.90
11772;DHT22;12556;55.748;13.194;2023-05-31T01:37:28;11.00;99.90
11772;DHT22;12556;55.748;13.194;2023-05-31T01:39:55;11.10;99.90
11772;DHT22;12556;55.748;13.194;2023-05-31T01:42:23;11.10;99.90
11772;DHT22;12556;55.748;13.194;2023-05-31T01:44:52;11.10;99.90
11772;DHT22;12556;55.748;13.194;2023-05-31T01:47:20;11.10;99.90
11772;DHT22;12556;55.748;13.194;2023-05-31T01:49:48;11.10;99.90
11772;DHT22;12556;55.748;13.194;2023-05-31T01:52:17;11.20;99.90
11772;DHT22;12556;55.748;13.194;2023-05-31T01:54:45;11.10;99.90
11772;DHT22;12556;55.748;13.194;2023-05-31T01:57:13;11.10;99.90
11772;DHT22;12556;55.748;13.194;2023-05-31T01:59:41;11.10;99.90
11772;DHT22;12556;55.748;13.194;2023-05-31T02:02:10;11.10;99.90
11772;DHT22;12556;55.748;13.194;2023-05-31T02:04:38;11.10;99.90
11772;DHT22;12556;55.748;13.194;2023-05-31T02:07:05;11.10;99.90
11772;DHT22;12556;55.748;13.194;2023-05-31T02:09:34;11.10;99.90
11772;DHT22;12556;55.748;13.194;2023-05-31T02:12:01;11.20;99.90
11772;DHT22;12556;55.748;13.194;2023-05-31T02:14:28;11.10;99.90
11772;DHT22;12556;55.748;13.194;2023-05-31T02:16:54;11.20;99.90
11772;DHT22;12556;55.748;13.194;2023-05-31T02:19:23;11.10;99.90
11772;DHT22;12556;55.748;13.194;2023-05-31T02:21:51;11.10;99.90
11772;DHT22;12556;55.748;13.194;2023-05-31T02:24:18;11.10;99.90
11772;DHT22;12556;55.748;13.194;2023-05-31T02:26:45;11.10;99.90
11772;DHT22;12556;55.748;13.194;2023-05-31T02:29:11;11.10;99.90
11772;DHT22;12556;55.748;13.194;2023-05-31T02:31:38;11.10;99.90
11772;DHT22;12556;55.748;13.194;2023-05-31T02:34:05;11.10;99.90
11772;DHT22;12556;55.748;13.194;2023-05-31T02:36:34;11.10;99.90
11772;DHT22;12556;55.748;13.194;2023-05-31T02:39:01;11.20;99.90
11772;DHT22;12556;55.748;13.194;2023-05-31T02:41:28;11.10;99.90
11772;DHT22;12556;55.748;13.194;2023-05-31T02:43:55;11.20;99.90
11772;DHT22;12556;55.748;13.194;2023-05-31T02:46:21;11.20;99.90
11772;DHT22;12556;55.748;13.194;2023-05-31T02:48:48;11.20;99.90
11772;DHT22;12556;55.748;13.194;2023-05-31T02:51:15;11.20;99.90
11772;DHT22;12556;55.748;13.194;2023-05-31T02:53:43;11.20;99.90
11772;DHT22;12556;55.748;13.194;2023-05-31T02:56:10;11.30;99.90
11772;DHT22;12556;55.748;13.194;2023-05-31T02:58:37;11.30;99.90
11772;DHT22;12556;55.748;13.194;2023-05-31T03:01:04;11.30;99.90
11772;DHT22;12556;55.748;13.194;2023-05-31T03:03:31;11.30;99.90
11772;DHT22;12556;55.748;13.194;2023-05-31T03:05:58;11.30;99.90
11772;DHT22;12556;55.748;13.194;2023-05-31T03:08:25;11.30;99.90
11772;DHT22;12556;55.748;13.194;2023-05-31T03:10:53;11.40;99.90
11772;DHT22;12556;55.748;13.194;2023-05-31T03:13:20;11.30;99.90
11772;DHT22;12556;55.748;13.194;2023-05-31T03:15:47;11.30;99.90
11772;DHT22;12556;55.748;13.194;2023-05-31T03:18:14;11.40;99.90
11772;DHT22;12556;55.748;13.194;2023-05-31T03:20:41;11.50;99.90
11772;DHT22;12556;55.748;13.194;2023-05-31T03:23:08;11.50;99.90
11772;DHT22;12556;55.748;13.194;2023-05-31T03:25:35;11.50;99.90
11772;DHT22;12556;55.748;13.194;2023-05-31T03:28:03;11.60;99.90
11772;DHT22;12556;55.748;13.194;2023-05-31T03:30:30;11.60;99.90
11772;DHT22;12556;55.748;13.194;2023-05-31T03:32:57;11.60;99.90
11772;DHT22;12556;55.748;13.194;2023-05-31T03:35:24;11.70;99.90
11772;DHT22;12556;55.748;13.194;2023-05-31T03:37:52;11.70;99.90
11772;DHT22;12556;55.748;13.194;2023-05-31T03:40:19;11.80;99.90
11772;DHT22;12556;55.748;13.194;2023-05-31T03:42:46;11.80;99.90
11772;DHT22;12556;55.748;13.194;2023-05-31T03:45:14;11.90;99.90
11772;DHT22;12556;55.748;13.194;2023-05-31T03:47:41;11.90;99.90
11772;DHT22;12556;55.748;13.194;2023-05-31T03:50:09;11.90;99.90
11772;DHT22;12556;55.748;13.194;2023-05-31T03:52:36;12.00;99.90
11772;DHT22;12556;55.748;13.194;2023-05-31T03:55:04;12.00;99.90
11772;DHT22;12556;55.748;13.194;2023-05-31T03:57:32;12.10;99.90
11772;DHT22;12556;55.748;13.194;2023-05-31T03:59:58;12.10;99.90
11772;DHT22;12556;55.748;13.194;2023-05-31T04:02:27;12.20;99.90
11772;DHT22;12556;55.748;13.194;2023-05-31T04:04:55;12.20;99.90
11772;DHT22;12556;55.748;13.194;2023-05-31T04:07:21;12.20;99.90
11772;DHT22;12556;55.748;13.194;2023-05-31T04:09:48;12.30;99.90
11772;DHT22;12556;55.748;13.194;2023-05-31T04:12:15;12.40;99.90
11772;DHT22;12556;55.748;13.194;2023-05-31T04:14:42;12.50;99.90
11772;DHT22;12556;55.748;13.194;2023-05-31T04:17:09;12.50;99.90
11772;DHT22;12556;55.748;13.194;2023-05-31T04:19:37;12.60;99.90
11772;DHT22;12556;55.748;13.194;2023-05-31T04:22:04;12.70;99.90
11772;DHT22;12556;55.748;13.194;2023-05-31T04:24:32;12.70;99.90
11772;DHT22;12556;55.748;13.194;2023-05-31T04:26:59;12.80;99.90
11772;DHT22;12556;55.748;13.194;2023-05-31T04:29:28;12.90;99.90
11772;DHT22;12556;55.748;13.194;2023-05-31T04:31:55;12.90;99.90
11772;DHT22;12556;55.748;13.194;2023-05-31T04:34:22;12.90;99.90
11772;DHT22;12556;55.748;13.194;2023-05-31T04:36:50;12.90;99.90
11772;DHT22;12556;55.748;13.194;2023-05-31T04:39:17;13.00;99.90
11772;DHT22;12556;55.748;13.194;2023-05-31T04:41:47;13.00;99.90
11772;DHT22;12556;55.748;13.194;2023-05-31T04:44:14;13.00;99.90
11772;DHT22;12556;55.748;13.194;2023-05-31T04:46:41;13.10;99.90
11772;DHT22;12556;55.748;13.194;2023-05-31T04:49:08;13.20;99.90
11772;DHT22;12556;55.748;13.194;2023-05-31T04:51:35;13.30;99.90
11772;DHT22;12556;55.748;13.194;2023-05-31T04:54:03;13.40;99.90
11772;DHT22;12556;55.748;13.194;2023-05-31T04:56:31;13.50;99.90
11772;DHT22;12556;55.748;13.194;2023-05-31T04:58:58;13.60;99.90
11772;DHT22;12556;55.748;13.194;2023-05-31T05:01:25;13.60;99.90
11772;DHT22;12556;55.748;13.194;2023-05-31T05:03:52;13.70;99.90
11772;DHT22;12556;55.748;13.194;2023-05-31T05:06:19;13.70;99.90
11772;DHT22;12556;55.748;13.194;2023-05-31T05:08:46;13.80;99.90
11772;DHT22;12556;55.748;13.194;2023-05-31T05:11:14;13.80;99.90
11772;DHT22;12556;55.748;13.194;2023-05-31T05:13:43;13.80;99.90
11772;DHT22;12556;55.748;13.194;2023-05-31T05:16:10;13.90;99.90
11772;DHT22;12556;55.748;13.194;2023-05-31T05:18:37;13.90;99.90
11772;DHT22;12556;55.748;13.194;2023-05-31T05:21:04;13.90;99.90
11772;DHT22;12556;55.748;13.194;2023-05-31T05:23:31;14.00;99.90
11772;DHT22;12556;55.748;13.194;2023-05-31T05:25:58;14.10;99.90
11772;DHT22;12556;55.748;13.194;2023-05-31T05:28:27;14.20;99.90
11772;DHT22;12556;55.748;13.194;2023-05-31T05:30:54;14.30;99.90
11772;DHT22;12556;55.748;13.194;2023-05-31T05:33:21;14.40;99.90
11772;DHT22;12556;55.748;13.194;2023-05-31T05:35:47;14.50;99.90
11772;DHT22;12556;55.748;13.194;2023-05-31T05:38:14;14.70;99.90
11772;DHT22;12556;55.748;13.194;2023-05-31T05:40:41;14.80;99.90
11772;DHT22;12556;55.748;13.194;2023-05-31T05:43:08;14.90;99.90
11772;DHT22;12556;55.748;13.194;2023-05-31T05:45:36;14.90;99.90
11772;DHT22;12556;55.748;13.194;2023-05-31T05:48:03;15.00;99.90
11772;DHT22;12556;55.748;13.194;2023-05-31T05:50:30;15.10;99.90
11772;DHT22;12556;55.748;13.194;2023-05-31T05:52:57;15.20;99.90
11772;DHT22;12556;55.748;13.194;2023-05-31T05:55:24;15.30;99.90
11772;DHT22;12556;55.748;13.194;2023-05-31T05:57:51;15.50;99.90
11772;DHT22;12556;55.748;13.194;2023-05-31T06:00:18;15.50;99.90
11772;DHT22;12556;55.748;13.194;2023-05-31T06:02:48;15.70;99.90
11772;DHT22;12556;55.748;13.194;2023-05-31T06:05:15;15.90;99.90
11772;DHT22;12556;55.748;13.194;2023-05-31T06:07:42;16.00;99.90
11772;DHT22;12556;55.748;13.194;2023-05-31T06:10:10;16.30;99.90
11772;DHT22;12556;55.748;13.194;2023-05-31T06:12:37;16.50;99.90
11772;DHT22;12556;55.748;13.194;2023-05-31T06:15:04;16.70;99.90
11772;DHT22;12556;55.748;13.194;2023-05-31T06:17:31;16.90;99.90
11772;DHT22;12556;55.748;13.194;2023-05-31T06:19:59;17.10;99.90
11772;DHT22;12556;55.748;13.194;2023-05-31T06:22:26;17.40;99.90
11772;DHT22;12556;55.748;13.194;2023-05-31T06:24:55;17.60;99.90
11772;DHT22;12556;55.748;13.194;2023-05-31T06:27:23;17.80;99.90
11772;DHT22;12556;55.748;13.194;2023-05-31T06:29:50;17.90;99.90
11772;DHT22;12556;55.748;13.194;2023-05-31T06:32:23;18.20;99.90
11772;DHT22;12556;55.748;13.194;2023-05-31T06:34:50;18.40;99.90
11772;DHT22;12556;55.748;13.194;2023-05-31T06:37:18;18.50;99.90
11772;DHT22;12556;55.748;13.194;2023-05-31T06:39:45;18.70;99.90
11772;DHT22;12556;55.748;13.194;2023-05-31T06:42:12;18.80;99.90
11772;DHT22;12556;55.748;13.194;2023-05-31T06:44:40;19.00;99.90
11772;DHT22;12556;55.748;13.194;2023-05-31T06:47:07;19.10;99.90
11772;DHT22;12556;55.748;13.194;2023-05-31T06:49:35;19.20;99.90
11772;DHT22;12556;55.748;13.194;2023-05-31T06:52:02;19.40;99.90
11772;DHT22;12556;55.748;13.194;2023-05-31T06:54:34;19.60;99.90
11772;DHT22;12556;55.748;13.194;2023-05-31T06:57:01;19.80;99.90
11772;DHT22;12556;55.748;13.194;2023-05-31T06:59:28;19.90;99.90
11772;DHT22;12556;55.748;13.194;2023-05-31T07:01:55;20.10;99.90
11772;DHT22;12556;55.748;13.194;2023-05-31T07:04:22;20.10;99.90
11772;DHT22;12556;55.748;13.194;2023-05-31T07:06:49;20.10;99.90
11772;DHT22;12556;55.748;13.194;2023-05-31T07:09:16;20.20;99.90
11772;DHT22;12556;55.748;13.194;2023-05-31T07:11:44;20.20;99.70
11772;DHT22;12556;55.748;13.194;2023-05-31T07:14:11;20.30;99.60
11772;DHT22;12556;55.748;13.194;2023-05-31T07:16:38;20.40;99.50
11772;DHT22;12556;55.748;13.194;2023-05-31T07:19:05;20.60;99.50
11772;DHT22;12556;55.748;13.194;2023-05-31T07:21:32;20.70;99.40
11772;DHT22;12556;55.748;13.194;2023-05-31T07:23:59;20.80;99.10
11772;DHT22;12556;55.748;13.194;2023-05-31T07:26:26;20.90;98.70
11772;DHT22;12556;55.748;13.194;2023-05-31T07:28:54;20.90;98.40
11772;DHT22;12556;55.748;13.194;2023-05-31T07:31:21;20.90;98.00
11772;DHT22;12556;55.748;13.194;2023-05-31T07:33:48;20.90;98.20
11772;DHT22;12556;55.748;13.194;2023-05-31T07:36:15;20.90;98.10
11772;DHT22;12556;55.748;13.194;2023-05-31T07:38:43;20.90;97.90
11772;DHT22;12556;55.748;13.194;2023-05-31T07:41:10;20.90;98.10
11772;DHT22;12556;55.748;13.194;2023-05-31T07:43:38;21.00;98.40
11772;DHT22;12556;55.748;13.194;2023-05-31T07:46:07;21.10;98.40
11772;DHT22;12556;55.748;13.194;2023-05-31T07:48:34;21.00;98.70
11772;DHT22;12556;55.748;13.194;2023-05-31T07:51:01;21.00;98.70
11772;DHT22;12556;55.748;13.194;2023-05-31T07:53:28;21.10;98.50
11772;DHT22;12556;55.748;13.194;2023-05-31T07:55:55;21.20;98.60
11772;DHT22;12556;55.748;13.194;2023-05-31T07:58:22;21.30;98.30
11772;DHT22;12556;55.748;13.194;2023-05-31T08:00:49;21.30;97.80
11772;DHT22;12556;55.748;13.194;2023-05-31T08:03:19;21.30;97.90
11772;DHT22;12556;55.748;13.194;2023-05-31T08:05:46;21.50;97.90
11772;DHT22;12556;55.748;13.194;2023-05-31T08:08:15;21.70;97.50
11772;DHT22;12556;55.748;13.194;2023-05-31T08:10:42;21.80;97.10
11772;DHT22;12556;55.748;13.194;2023-05-31T08:13:09;21.90;96.90
11772;DHT22;12556;55.748;13.194;2023-05-31T08:15:36;22.00;96.70
11772;DHT22;12556;55.748;13.194;2023-05-31T08:18:03;22.00;96.50
11772;DHT22;12556;55.748;13.194;2023-05-31T08:20:31;22.20;96.20
11772;DHT22;12556;55.748;13.194;2023-05-31T08:22:58;22.20;95.70
11772;DHT22;12556;55.748;13.194;2023-05-31T08:25:25;22.20;95.60
11772;DHT22;12556;55.748;13.194;2023-05-31T08:27:52;22.20;95.60
11772;DHT22;12556;55.748;13.194;2023-05-31T08:30:19;22.40;95.60
11772;DHT22;12556;55.748;13.194;2023-05-31T08:32:46;22.60;95.40
11772;DHT22;12556;55.748;13.194;2023-05-31T08:35:13;22.60;95.20
11772;DHT22;12556;55.748;13.194;2023-05-31T08:37:42;22.80;95.40
11772;DHT22;12556;55.748;13.194;2023-05-31T08:40:10;22.90;94.70
11772;DHT22;12556;55.748;13.194;2023-05-31T08:42:39;22.90;94.60
11772;DHT22;12556;55.748;13.194;2023-05-31T08:45:09;22.90;94.70
11772;DHT22;12556;55.748;13.194;2023-05-31T08:47:39;22.90;94.50
11772;DHT22;12556;55.748;13.194;2023-05-31T08:50:09;22.90;94.10
11772;DHT22;12556;55.748;13.194;2023-05-31T08:52:36;23.00;94.40
11772;DHT22;12556;55.748;13.194;2023-05-31T08:55:08;23.10;93.90
11772;DHT22;12556;55.748;13.194;2023-05-31T08:57:35;23.20;93.50
11772;DHT22;12556;55.748;13.194;2023-05-31T09:00:04;23.30;93.40
11772;DHT22;12556;55.748;13.194;2023-05-31T09:02:36;23.20;93.50
11772;DHT22;12556;55.748;13.194;2023-05-31T09:05:04;23.30;93.40
11772;DHT22;12556;55.748;13.194;2023-05-31T09:07:36;23.10;93.50
11772;DHT22;12556;55.748;13.194;2023-05-31T09:10:03;23.10;93.80
11772;DHT22;12556;55.748;13.194;2023-05-31T09:12:33;23.20;94.00
11772;DHT22;12556;55.748;13.194;2023-05-31T09:15:00;23.40;93.90
11772;DHT22;12556;55.748;13.194;2023-05-31T09:17:27;23.60;93.90
11772;DHT22;12556;55.748;13.194;2023-05-31T09:19:54;23.80;93.10
11772;DHT22;12556;55.748;13.194;2023-05-31T09:22:22;23.90;92.50
11772;DHT22;12556;55.748;13.194;2023-05-31T09:24:49;23.90;92.10
11772;DHT22;12556;55.748;13.194;2023-05-31T09:27:16;24.00;92.30
11772;DHT22;12556;55.748;13.194;2023-05-31T09:29:50;24.10;91.90
11772;DHT22;12556;55.748;13.194;2023-05-31T09:32:17;24.20;91.30
11772;DHT22;12556;55.748;13.194;2023-05-31T09:34:44;24.30;90.90
11772;DHT22;12556;55.748;13.194;2023-05-31T09:37:20;24.40;90.40
11772;DHT22;12556;55.748;13.194;2023-05-31T09:39:54;24.60;89.50
11772;DHT22;12556;55.748;13.194;2023-05-31T09:42:21;24.70;85.20
11772;DHT22;12556;55.748;13.194;2023-05-31T09:44:51;24.80;82.70
11772;DHT22;12556;55.748;13.194;2023-05-31T09:47:22;24.90;81.10
11772;DHT22;12556;55.748;13.194;2023-05-31T09:49:50;24.90;78.90
11772;DHT22;12556;55.748;13.194;2023-05-31T09:52:25;25.00;78.60
11772;DHT22;12556;55.748;13.194;2023-05-31T09:54:54;25.10;75.50
11772;DHT22;12556;55.748;13.194;2023-05-31T09:57:31;24.90;74.30
11772;DHT22;12556;55.748;13.194;2023-05-31T10:00:08;24.90;74.30
11772;DHT22;12556;55.748;13.194;2023-05-31T10:02:43;24.80;73.70
11772;DHT22;12556;55.748;13.194;2023-05-31T10:05:11;24.60;73.40
11772;DHT22;12556;55.748;13.194;2023-05-31T10:07:38;24.50;73.00
11772;DHT22;12556;55.748;13.194;2023-05-31T10:10:07;24.40;74.60
11772;DHT22;12556;55.748;13.194;2023-05-31T10:12:38;24.40;74.30
11772;DHT22;12556;55.748;13.194;2023-05-31T10:15:11;24.50;74.10
11772;DHT22;12556;55.748;13.194;2023-05-31T10:17:43;24.40;74.10
11772;DHT22;12556;55.748;13.194;2023-05-31T10:20:14;24.40;73.70
11772;DHT22;12556;55.748;13.194;2023-05-31T10:22:43;24.30;73.60
11772;DHT22;12556;55.748;13.194;2023-05-31T10:25:17;24.10;74.30
11772;DHT22;12556;55.748;13.194;2023-05-31T10:27:51;24.00;73.80
11772;DHT22;12556;55.748;13.194;2023-05-31T10:30:21;24.10;73.90
11772;DHT22;12556;55.748;13.194;2023-05-31T10:33:05;24.10;74.10
11772;DHT22;12556;55.748;13.194;2023-05-31T10:35:33;24.10;73.90
11772;DHT22;12556;55.748;13.194;2023-05-31T10:38:01;24.20;74.50
11772;DHT22;12556;55.748;13.194;2023-05-31T10:40:33;24.60;74.00
11772;DHT22;12556;55.748;13.194;2023-05-31T10:43:07;24.80;73.50
11772;DHT22;12556;55.748;13.194;2023-05-31T10:45:38;24.80;73.00
11772;DHT22;12556;55.748;13.194;2023-05-31T10:48:25;24.60;72.30
11772;DHT22;12556;55.748;13.194;2023-05-31T10:50:59;24.80;73.10
11772;DHT22;12556;55.748;13.194;2023-05-31T10:53:28;24.90;73.50
11772;DHT22;12556;55.748;13.194;2023-05-31T10:56:01;24.80;73.80
11772;DHT22;12556;55.748;13.194;2023-05-31T10:58:31;24.90;73.60
11772;DHT22;12556;55.748;13.194;2023-05-31T11:01:04;25.00;73.50
11772;DHT22;12556;55.748;13.194;2023-05-31T11:03:33;25.00;74.40
11772;DHT22;12556;55.748;13.194;2023-05-31T11:06:02;25.00;74.20
11772;DHT22;12556;55.748;13.194;2023-05-31T11:08:30;25.20;73.10
11772;DHT22;12556;55.748;13.194;2023-05-31T11:11:27;25.30;73.30
11772;DHT22;12556;55.748;13.194;2023-05-31T11:13:58;25.40;71.70
11772;DHT22;12556;55.748;13.194;2023-05-31T11:16:28;25.10;73.10
11772;DHT22;12556;55.748;13.194;2023-05-31T11:19:03;25.10;73.10
11772;DHT22;12556;55.748;13.194;2023-05-31T11:21:47;24.90;74.10
11772;DHT22;12556;55.748;13.194;2023-05-31T11:24:28;25.10;74.50
11772;DHT22;12556;55.748;13.194;2023-05-31T11:26:57;25.40;74.10
11772;DHT22;12556;55.748;13.194;2023-05-31T11:29:24;25.50;74.20
11772;DHT22;12556;55.748;13.194;2023-05-31T11:31:57;25.50;74.00
11772;DHT22;12556;55.748;13.194;2023-05-31T11:34:26;25.50;74.10
11772;DHT22;12556;55.748;13.194;2023-05-31T11:36:55;25.60;74.30
11772;DHT22;12556;55.748;13.194;2023-05-31T11:39:22;25.50;73.70
11772;DHT22;12556;55.748;13.194;2023-05-31T11:41:50;25.60;73.80
11772;DHT22;12556;55.748;13.194;2023-05-31T11:44:21;25.60;73.80
11772;DHT22;12556;55.748;13.194;2023-05-31T11:46:54;25.60;73.70
11772;DHT22;12556;55.748;13.194;2023-05-31T11:49:23;25.50;73.90
11772;DHT22;12556;55.748;13.194;2023-05-31T11:51:50;25.60;72.90
11772;DHT22;12556;55.748;13.194;2023-05-31T11:54:25;25.40;73.10
11772;DHT22;12556;55.748;13.194;2023-05-31T11:56:56;25.10;73.60
11772;DHT22;12556;55.748;13.194;2023-05-31T11:59:24;25.00;73.70
11772;DHT22;12556;55.748;13.194;2023-05-31T12:01:51;25.00;73.80
11772;DHT22;12556;55.748;13.194;2023-05-31T12:04:18;25.20;73.80
11772;DHT22;12556;55.748;13.194;2023-05-31T12:06:46;25.20;72.20
11772;DHT22;12556;55.748;13.194;2023-05-31T12:09:13;25.10;72.80
11772;DHT22;12556;55.748;13.194;2023-05-31T12:11:40;25.00;73.40
11772;DHT22;12556;55.748;13.194;2023-05-31T12:14:06;24.90;74.20
11772;DHT22;12556;55.748;13.194;2023-05-31T12:16:33;25.00;74.50
11772;DHT22;12556;55.748;13.194;2023-05-31T12:19:00;25.20;73.20
11772;DHT22;12556;55.748;13.194;2023-05-31T12:21:27;25.30;73.50
11772;DHT22;12556;55.748;13.194;2023-05-31T12:23:56;25.40;74.10
11772;DHT22;12556;55.748;13.194;2023-05-31T12:26:24;25.40;72.20
11772;DHT22;12556;55.748;13.194;2023-05-31T12:28:52;25.20;73.20
11772;DHT22;12556;55.748;13.194;2023-05-31T12:31:22;25.40;73.70
11772;DHT22;12556;55.748;13.194;2023-05-31T12:33:57;25.60;73.30
11772;DHT22;12556;55.748;13.194;2023-05-31T12:36:25;25.70;72.50
11772;DHT22;12556;55.748;13.194;2023-05-31T12:38:56;25.70;72.00
11772;DHT22;12556;55.748;13.194;2023-05-31T12:41:23;25.60;72.00
11772;DHT22;12556;55.748;13.194;2023-05-31T12:43:52;25.50;71.80
11772;DHT22;12556;55.748;13.194;2023-05-31T12:46:19;25.40;72.10
11772;DHT22;12556;55.748;13.194;2023-05-31T12:48:46;25.40;71.80
11772;DHT22;12556;55.748;13.194;2023-05-31T12:51:19;25.10;72.50
11772;DHT22;12556;55.748;13.194;2023-05-31T12:53:46;24.80;72.90
11772;DHT22;12556;55.748;13.194;2023-05-31T12:56:14;24.80;73.60
11772;DHT22;12556;55.748;13.194;2023-05-31T12:58:41;24.70;74.00
11772;DHT22;12556;55.748;13.194;2023-05-31T13:01:08;24.70;73.80
11772;DHT22;12556;55.748;13.194;2023-05-31T13:03:35;24.60;74.30
11772;DHT22;12556;55.748;13.194;2023-05-31T13:06:02;24.60;74.20
11772;DHT22;12556;55.748;13.194;2023-05-31T13:08:30;24.60;74.30
11772;DHT22;12556;55.748;13.194;2023-05-31T13:10:56;24.70;74.60
11772;DHT22;12556;55.748;13.194;2023-05-31T13:13:25;24.80;74.30
11772;DHT22;12556;55.748;13.194;2023-05-31T13:15:52;24.90;73.90
11772;DHT22;12556;55.748;13.194;2023-05-31T13:18:18;25.00;73.60
11772;DHT22;12556;55.748;13.194;2023-05-31T13:20:45;25.10;73.30
11772;DHT22;12556;55.748;13.194;2023-05-31T13:23:12;25.10;73.00
11772;DHT22;12556;55.748;13.194;2023-05-31T13:25:39;25.00;73.60
11772;DHT22;12556;55.748;13.194;2023-05-31T13:28:06;24.90;73.70
11772;DHT22;12556;55.748;13.194;2023-05-31T13:30:34;24.90;74.20
11772;DHT22;12556;55.748;13.194;2023-05-31T13:33:01;25.00;74.30
11772;DHT22;12556;55.748;13.194;2023-05-31T13:35:28;25.00;73.80
11772;DHT22;12556;55.748;13.194;2023-05-31T13:37:55;24.70;73.90
11772;DHT22;12556;55.748;13.194;2023-05-31T13:40:22;24.60;74.60
11772;DHT22;12556;55.748;13.194;2023-05-31T13:42:49;24.60;75.00
11772;DHT22;12556;55.748;13.194;2023-05-31T13:45:16;24.80;73.40
11772;DHT22;12556;55.748;13.194;2023-05-31T13:47:45;25.00;74.00
11772;DHT22;12556;55.748;13.194;2023-05-31T13:50:12;25.20;73.60
11772;DHT22;12556;55.748;13.194;2023-05-31T13:52:38;25.30;72.80
11772;DHT22;12556;55.748;13.194;2023-05-31T13:55:06;25.10;71.80
11772;DHT22;12556;55.748;13.194;2023-05-31T13:57:33;24.80;72.40
11772;DHT22;12556;55.748;13.194;2023-05-31T14:00:00;25.00;72.50
11772;DHT22;12556;55.748;13.194;2023-05-31T14:02:29;25.00;72.20
11772;DHT22;12556;55.748;13.194;2023-05-31T14:04:59;25.10;72.40
11772;DHT22;12556;55.748;13.194;2023-05-31T14:07:29;25.10;71.20
11772;DHT22;12556;55.748;13.194;2023-05-31T14:09:56;25.00;70.50
11772;DHT22;12556;55.748;13.194;2023-05-31T14:12:22;24.90;71.10
11772;DHT22;12556;55.748;13.194;2023-05-31T14:14:49;24.90;70.50
11772;DHT22;12556;55.748;13.194;2023-05-31T14:17:16;24.80;70.30
11772;DHT22;12556;55.748;13.194;2023-05-31T14:19:43;24.80;69.60
11772;DHT22;12556;55.748;13.194;2023-05-31T14:22:11;24.60;69.60
11772;DHT22;12556;55.748;13.194;2023-05-31T14:24:38;24.30;69.10
11772;DHT22;12556;55.748;13.194;2023-05-31T14:27:05;24.00;69.50
11772;DHT22;12556;55.748;13.194;2023-05-31T14:29:32;23.80;69.80
11772;DHT22;12556;55.748;13.194;2023-05-31T14:31:59;23.40;71.00
11772;DHT22;12556;55.748;13.194;2023-05-31T14:34:26;23.30;71.60
11772;DHT22;12556;55.748;13.194;2023-05-31T14:36:53;23.20;72.00
11772;DHT22;12556;55.748;13.194;2023-05-31T14:39:21;23.10;72.40
11772;DHT22;12556;55.748;13.194;2023-05-31T14:41:48;23.10;72.50
11772;DHT22;12556;55.748;13.194;2023-05-31T14:44:15;22.90;72.90
11772;DHT22;12556;55.748;13.194;2023-05-31T14:46:42;22.70;73.50
11772;DHT22;12556;55.748;13.194;2023-05-31T14:49:08;22.50;73.90
11772;DHT22;12556;55.748;13.194;2023-05-31T14:51:35;22.60;74.30
11772;DHT22;12556;55.748;13.194;2023-05-31T14:54:02;22.50;74.40
11772;DHT22;12556;55.748;13.194;2023-05-31T14:56:31;22.50;74.80
11772;DHT22;12556;55.748;13.194;2023-05-31T14:58:57;22.40;75.10
11772;DHT22;12556;55.748;13.194;2023-05-31T15:01:24;22.40;75.40
11772;DHT22;12556;55.748;13.194;2023-05-31T15:03:51;22.30;76.00
11772;DHT22;12556;55.748;13.194;2023-05-31T15:06:18;22.20;76.90
11772;DHT22;12556;55.748;13.194;2023-05-31T15:08:45;22.10;77.20
11772;DHT22;12556;55.748;13.194;2023-05-31T15:11:12;22.00;78.30
11772;DHT22;12556;55.748;13.194;2023-05-31T15:13:40;21.90;78.60
11772;DHT22;12556;55.748;13.194;2023-05-31T15:16:07;21.90;78.90
11772;DHT22;12556;55.748;13.194;2023-05-31T15:18:34;21.80;79.30
11772;DHT22;12556;55.748;13.194;2023-05-31T15:21:01;21.70;79.80